Time;durP1;ratioP1;P1;durP2;ratioP2;P2;SDS_P1;SDS_P2;PMS_P1;PMS_P2;Temp;Humidity;BMP_temperature;BMP_pressure;BME280_temperature;BME280_humidity;BME280_pressure;Samples;Min_cycle;Max_cycle;Signal;HPM_P1;HPM_P2
2023/12/08 00:01:19;;;;;;;64.45;25.63;;;0.70;99.90;;;;;;21094364;28;20173;-77
2023/12/08 00:11:19;;;;;;;74.22;27.08;;;0.70;99.90;;;;;;21088460;28;20471;-77
2023/12/08 00:21:20;;;;;;;64.43;25.15;;;0.80;99.90;;;;;;21084669;28;20126;-77
2023/12/08 00:31:21;;;;;;;72.05;26.25;;;0.70;99.90;;;;;;21084414;28;20051;-78
2023/12/08 00:41:23;;;;;;;60.37;23.20;;;0.70;99.90;;;;;;21092223;28;20027;-78
2023/12/08 00:51:24;;;;;;;67.85;27.83;;;0.70;99.90;;;;;;21088113;28;20274;-78
2023/12/08 01:01:24;;;;;;;66.70;27.03;;;0.50;99.90;;;;;;21072445;28;20036;-78
2023/12/08 01:11:25;;;;;;;68.50;25.67;;;0.50;99.90;;;;;;21093055;28;20273;-79
2023/12/08 01:21:26;;;;;;;77.55;28.60;;;0.50;99.90;;;;;;21096630;28;20038;-79
2023/12/08 01:31:27;;;;;;;75.22;28.83;;;0.50;99.90;;;;;;21094882;28;20046;-79
2023/12/08 01:41:27;;;;;;;74.72;28.40;;;0.50;99.90;;;;;;21096639;28;20058;-77
2023/12/08 01:51:28;;;;;;;67.55;26.13;;;0.50;99.90;;;;;;21093313;28;20061;-78
2023/12/08 02:01:29;;;;;;;75.32;26.63;;;0.60;99.90;;;;;;21093406;28;20062;-79
2023/12/08 02:11:30;;;;;;;76.82;28.20;;;0.60;99.90;;;;;;21097033;28;20484;-78
2023/12/08 02:21:31;;;;;;;73.65;27.92;;;0.60;99.90;;;;;;21093438;28;20480;-79
2023/12/08 02:31:44;;;;;;;69.90;27.90;;;0.60;99.90;;;;;;21087984;28;20088;-79
2023/12/08 02:41:45;;;;;;;65.20;24.95;;;0.60;99.90;;;;;;21103639;28;20028;-79
2023/12/08 02:51:45;;;;;;;60.05;24.30;;;0.70;99.90;;;;;;21110860;28;20032;-79
2023/12/08 03:01:46;;;;;;;65.75;25.27;;;0.70;99.90;;;;;;21112270;28;20028;-78
2023/12/08 03:11:47;;;;;;;60.30;23.67;;;0.70;99.90;;;;;;21112401;28;20031;-79
2023/12/08 03:21:47;;;;;;;57.13;22.83;;;0.80;99.90;;;;;;21112716;28;20305;-79
2023/12/08 03:31:48;;;;;;;57.13;23.20;;;0.70;99.90;;;;;;21111948;28;20447;-79
2023/12/08 03:41:49;;;;;;;59.20;24.25;;;0.70;99.90;;;;;;21110131;28;20032;-78
2023/12/08 03:51:50;;;;;;;62.35;25.42;;;0.70;99.90;;;;;;21110352;28;20029;-79
2023/12/08 04:01:53;;;;;;;73.53;27.83;;;0.70;99.90;;;;;;21109128;28;20377;-79
2023/12/08 04:11:54;;;;;;;64.25;24.63;;;0.80;99.90;;;;;;21098223;28;20029;-79
2023/12/08 04:21:55;;;;;;;71.30;26.58;;;0.80;99.90;;;;;;21095566;28;20033;-79
2023/12/08 04:31:55;;;;;;;77.03;28.70;;;0.90;99.90;;;;;;21093848;28;20055;-78
2023/12/08 04:41:56;;;;;;;93.00;29.35;;;0.90;99.90;;;;;;21067346;28;20032;-76
2023/12/08 04:51:57;;;;;;;68.63;27.85;;;0.90;99.90;;;;;;21064939;28;20025;-77
2023/12/08 05:01:58;;;;;;;65.35;25.75;;;0.90;99.90;;;;;;21073438;28;20150;-77
2023/12/08 05:11:58;;;;;;;83.15;30.13;;;0.90;99.90;;;;;;21071827;28;20059;-77
2023/12/08 05:22:01;;;;;;;84.28;29.98;;;0.90;99.90;;;;;;21072997;28;20091;-77
2023/12/08 05:32:02;;;;;;;99.28;33.72;;;0.90;99.90;;;;;;21056858;28;20495;-76
2023/12/08 05:42:02;;;;;;;97.07;32.28;;;1.00;99.90;;;;;;21072149;28;20029;-76
2023/12/08 05:52:04;;;;;;;87.10;32.65;;;1.00;99.90;;;;;;21069446;28;20068;-77
2023/12/08 06:02:04;;;;;;;82.22;29.75;;;1.00;99.90;;;;;;21078546;28;20031;-77
2023/12/08 06:12:05;;;;;;;87.43;29.65;;;1.00;99.90;;;;;;21048885;28;20060;-76
2023/12/08 06:22:06;;;;;;;90.20;31.27;;;1.10;99.90;;;;;;21078166;28;20091;-77
2023/12/08 06:32:07;;;;;;;91.70;33.08;;;1.00;99.90;;;;;;21076538;28;20429;-77
2023/12/08 06:42:08;;;;;;;106.80;34.70;;;1.00;99.90;;;;;;21081066;28;20111;-77
2023/12/08 06:52:09;;;;;;;117.28;36.90;;;1.10;99.90;;;;;;21076893;28;20032;-77
2023/12/08 07:02:10;;;;;;;105.65;34.35;;;1.10;99.90;;;;;;21083958;28;20069;-76
2023/12/08 07:12:11;;;;;;;118.07;38.90;;;1.20;99.90;;;;;;21084049;28;20043;-77
2023/12/08 07:22:11;;;;;;;105.90;34.28;;;1.30;99.90;;;;;;21080356;28;20116;-77
2023/12/08 07:32:12;;;;;;;93.43;34.03;;;1.40;99.90;;;;;;21083043;28;20058;-77
2023/12/08 07:42:14;;;;;;;101.05;32.58;;;1.50;99.90;;;;;;21087759;28;20028;-77
2023/12/08 07:52:15;;;;;;;88.50;31.85;;;1.70;99.90;;;;;;21085050;28;20503;-76
2023/12/08 08:02:15;;;;;;;85.03;30.00;;;1.80;99.90;;;;;;21078617;28;20020;-76
2023/12/08 08:12:16;;;;;;;82.63;30.70;;;2.00;99.90;;;;;;21064254;28;20198;-76
2023/12/08 08:22:17;;;;;;;76.68;28.38;;;2.10;99.90;;;;;;21077706;28;20454;-76
2023/12/08 08:32:18;;;;;;;74.45;26.42;;;2.20;99.90;;;;;;21077657;28;20028;-77
2023/12/08 08:42:19;;;;;;;72.43;27.23;;;2.20;99.90;;;;;;21077899;28;20043;-77
2023/12/08 08:52:20;;;;;;;68.00;26.40;;;2.30;99.90;;;;;;21081412;28;20023;-77
2023/12/08 09:02:21;;;;;;;68.43;24.37;;;2.40;99.90;;;;;;21061763;28;20038;-76
2023/12/08 09:12:21;;;;;;;59.93;23.83;;;2.40;99.90;;;;;;21076207;28;20281;-77
2023/12/08 09:22:22;;;;;;;57.08;21.27;;;2.50;99.90;;;;;;21073445;28;20286;-77
2023/12/08 09:32:23;;;;;;;56.25;21.30;;;2.50;99.90;;;;;;21061651;28;20115;-76
2023/12/08 09:42:36;;;;;;;52.42;19.30;;;2.60;99.90;;;;;;21087608;28;20062;-76
2023/12/08 09:52:37;;;;;;;51.58;20.92;;;2.80;99.90;;;;;;21093464;28;20027;-76
2023/12/08 10:02:40;;;;;;;52.40;20.27;;;2.80;99.90;;;;;;21068369;28;20240;-76
2023/12/08 10:12:41;;;;;;;50.30;20.83;;;2.90;99.90;;;;;;21073710;28;20050;-77
2023/12/08 10:22:53;;;;;;;48.75;19.80;;;2.90;99.90;;;;;;21080939;28;20032;-77
2023/12/08 10:32:54;;;;;;;46.65;19.27;;;3.00;99.90;;;;;;21072830;28;20037;-75
2023/12/08 10:42:55;;;;;;;49.63;19.15;;;3.10;99.90;;;;;;21055873;28;20038;-77
2023/12/08 10:52:56;;;;;;;48.15;19.02;;;3.30;99.90;;;;;;21072700;28;20481;-77
2023/12/08 11:03:01;;;;;;;44.83;18.33;;;3.40;99.90;;;;;;21068317;28;20488;-77
2023/12/08 11:13:17;;;;;;;44.35;17.90;;;3.50;99.90;;;;;;21078832;28;20028;-76
2023/12/08 11:23:19;;;;;;;54.47;21.25;;;3.50;99.90;;;;;;21086786;28;20560;-76
2023/12/08 11:33:42;;;;;;;51.35;21.95;;;3.60;99.90;;;;;;21070372;28;20062;-77
2023/12/08 11:43:44;;;;;;;48.20;20.55;;;3.60;99.90;;;;;;21078517;28;20032;-75
2023/12/08 11:53:53;;;;;;;50.78;21.02;;;3.70;99.90;;;;;;21074291;28;20020;-76
2023/12/08 12:03:54;;;;;;;53.42;20.17;;;3.70;99.90;;;;;;21077375;28;20625;-76
2023/12/08 12:13:58;;;;;;;54.90;20.95;;;3.70;99.90;;;;;;21076077;28;20032;-76
2023/12/08 12:23:58;;;;;;;51.03;21.42;;;3.70;99.90;;;;;;21072639;28;20032;-76
2023/12/08 12:33:59;;;;;;;44.20;18.80;;;3.60;99.90;;;;;;21082986;28;20029;-76
2023/12/08 12:44:03;;;;;;;42.63;17.98;;;3.70;99.90;;;;;;21079879;28;20290;-75
2023/12/08 12:54:04;;;;;;;50.05;19.10;;;3.60;99.90;;;;;;21064053;28;20036;-75
2023/12/08 13:04:05;;;;;;;45.42;19.88;;;3.60;99.90;;;;;;21086901;28;20520;-76
2023/12/08 13:14:05;;;;;;;52.47;20.17;;;3.70;99.90;;;;;;21077964;28;20027;-76
2023/12/08 13:24:06;;;;;;;46.92;19.33;;;3.70;99.90;;;;;;21076516;28;20287;-75
2023/12/08 13:34:09;;;;;;;47.70;18.92;;;3.80;99.90;;;;;;21065803;28;20055;-76
2023/12/08 13:44:10;;;;;;;45.83;19.20;;;3.90;99.90;;;;;;21078418;28;20537;-75
2023/12/08 13:54:10;;;;;;;38.75;17.23;;;3.90;99.90;;;;;;21086700;28;20024;-75
2023/12/08 14:04:11;;;;;;;43.75;18.38;;;3.90;99.90;;;;;;21076513;28;20036;-76
2023/12/08 14:14:12;;;;;;;41.50;17.42;;;3.90;99.90;;;;;;21060464;28;20021;-76
2023/12/08 14:24:13;;;;;;;33.58;16.38;;;3.80;99.90;;;;;;21074371;28;20028;-77
2023/12/08 14:34:14;;;;;;;36.30;16.92;;;3.90;99.90;;;;;;21065034;28;20515;-77
2023/12/08 14:44:15;;;;;;;50.83;20.33;;;3.90;99.90;;;;;;21085293;28;20560;-76
2023/12/08 14:54:15;;;;;;;44.50;18.98;;;3.80;99.90;;;;;;21094562;28;20111;-75
2023/12/08 15:04:16;;;;;;;36.85;17.63;;;3.80;99.90;;;;;;21086800;28;20028;-76
2023/12/08 15:14:17;;;;;;;32.77;16.30;;;3.90;99.90;;;;;;21095146;28;20101;-77
2023/12/08 15:24:17;;;;;;;20.10;10.05;;;3.90;99.90;;;;;;21074563;28;20285;-76
2023/12/08 15:34:18;;;;;;;23.60;9.60;;;3.70;99.90;;;;;;21093040;28;20027;-77
2023/12/08 15:44:19;;;;;;;38.60;17.80;;;3.80;99.90;;;;;;21063783;28;20031;-77
2023/12/08 15:54:20;;;;;;;33.17;16.35;;;3.80;99.90;;;;;;21111058;28;20107;-76
2023/12/08 16:04:21;;;;;;;30.13;14.45;;;3.80;99.90;;;;;;21110486;28;20040;-76
2023/12/08 16:14:21;;;;;;;24.88;11.77;;;3.80;99.90;;;;;;21081848;28;20035;-75
2023/12/08 16:24:22;;;;;;;15.20;7.30;;;3.80;99.90;;;;;;21102818;28;20123;-76
2023/12/08 16:34:24;;;;;;;38.45;16.67;;;3.70;99.90;;;;;;21089609;28;20091;-76
2023/12/08 16:44:25;;;;;;;14.52;7.80;;;3.70;99.90;;;;;;21107894;28;20049;-75
2023/12/08 16:54:26;;;;;;;14.25;7.22;;;3.70;99.90;;;;;;21120452;28;20043;-77
2023/12/08 17:04:26;;;;;;;15.93;7.57;;;3.70;99.90;;;;;;21116448;28;20041;-77
2023/12/08 17:14:27;;;;;;;11.95;6.82;;;3.60;99.90;;;;;;21084710;28;20518;-77
2023/12/08 17:24:28;;;;;;;13.40;7.70;;;3.70;99.90;;;;;;21076573;28;20157;-77
2023/12/08 17:34:29;;;;;;;15.68;7.03;;;3.70;99.90;;;;;;21105144;28;20108;-77
2023/12/08 17:44:33;;;;;;;13.30;7.40;;;3.60;99.90;;;;;;21103402;28;20073;-77
2023/12/08 17:54:34;;;;;;;15.40;7.75;;;3.70;99.90;;;;;;21103569;28;20031;-77
2023/12/08 18:04:38;;;;;;;33.83;13.25;;;3.60;99.90;;;;;;21103108;28;20511;-77
2023/12/08 18:14:40;;;;;;;37.55;12.13;;;3.60;99.90;;;;;;21103429;28;20035;-76
2023/12/08 18:24:41;;;;;;;23.75;10.10;;;3.60;99.90;;;;;;21105209;28;20039;-77
2023/12/08 18:34:41;;;;;;;26.45;9.20;;;3.60;99.90;;;;;;21118378;28;20040;-77
2023/12/08 18:44:42;;;;;;;41.93;10.93;;;3.70;99.90;;;;;;21107341;28;20509;-78
2023/12/08 18:54:43;;;;;;;22.15;9.98;;;3.80;99.90;;;;;;21087970;28;20680;-76
2023/12/08 19:04:44;;;;;;;40.50;11.35;;;3.80;99.90;;;;;;21072401;28;20169;-78
2023/12/08 19:14:45;;;;;;;38.50;11.50;;;3.80;99.90;;;;;;21084157;28;20020;-77
2023/12/08 19:24:45;;;;;;;35.38;11.35;;;3.70;99.90;;;;;;21077345;28;20036;-77
2023/12/08 19:34:46;;;;;;;33.33;10.30;;;3.70;99.90;;;;;;21085435;28;20030;-79
2023/12/08 19:44:47;;;;;;;36.35;13.18;;;3.80;99.90;;;;;;21090386;28;20112;-78
2023/12/08 19:54:48;;;;;;;31.40;10.77;;;3.90;99.90;;;;;;21116716;28;20032;-78
2023/12/08 20:04:49;;;;;;;35.58;11.23;;;3.80;99.90;;;;;;21097675;28;20036;-78
2023/12/08 20:14:49;;;;;;;43.47;13.15;;;3.80;99.90;;;;;;21072057;28;20115;-78
2023/12/08 20:24:50;;;;;;;41.33;13.30;;;3.70;99.90;;;;;;21108747;28;20111;-77
2023/12/08 20:34:51;;;;;;;43.20;12.93;;;3.80;99.90;;;;;;21089773;28;20111;-79
2023/12/08 20:44:52;;;;;;;47.83;15.05;;;3.90;99.90;;;;;;21082764;28;20061;-78
2023/12/08 20:54:53;;;;;;;44.47;14.77;;;3.90;99.90;;;;;;21079431;28;20450;-78
2023/12/08 21:04:53;;;;;;;43.92;15.43;;;3.90;99.90;;;;;;21058687;28;20027;-78
2023/12/08 21:14:54;;;;;;;29.10;9.07;;;3.90;99.90;;;;;;21091667;28;20035;-78
2023/12/08 21:24:55;;;;;;;19.30;8.00;;;3.90;99.90;;;;;;21102136;28;20059;-78
2023/12/08 21:34:56;;;;;;;36.47;13.00;;;3.90;99.90;;;;;;21089381;28;20032;-78
2023/12/08 21:45:00;;;;;;;;;;;3.90;99.90;;;;;;21101754;28;20035;-77
2023/12/08 21:55:01;;;;;;;25.50;10.45;;;4.00;99.90;;;;;;21113703;28;19993;-79
2023/12/08 22:05:02;;;;;;;26.05;8.32;;;3.90;99.90;;;;;;21074454;28;20040;-78
2023/12/08 22:15:04;;;;;;;25.95;12.93;;;3.90;99.90;;;;;;21079080;28;20459;-78
2023/12/08 22:25:06;;;;;;;30.60;11.32;;;3.90;99.90;;;;;;21075609;28;20033;-78
2023/12/08 22:35:07;;;;;;;33.40;14.25;;;3.90;99.90;;;;;;21073298;28;20025;-78
2023/12/08 22:45:08;;;;;;;22.45;8.45;;;3.90;99.90;;;;;;21089268;28;20028;-78
2023/12/08 22:55:09;;;;;;;39.17;13.90;;;4.00;99.90;;;;;;21101488;28;20036;-78
2023/12/08 23:05:10;;;;;;;22.00;9.50;;;4.00;99.90;;;;;;21096922;28;20024;-77
2023/12/08 23:15:11;;;;;;;22.02;8.95;;;4.00;99.90;;;;;;21110788;28;20074;-78
2023/12/08 23:25:14;;;;;;;17.92;5.57;;;3.90;99.90;;;;;;21103808;28;20028;-78
2023/12/08 23:35:15;;;;;;;28.88;7.38;;;3.90;99.90;;;;;;21104380;28;20062;-77
2023/12/08 23:45:16;;;;;;;39.45;12.57;;;3.90;99.90;;;;;;21107300;28;20024;-77
2023/12/08 23:55:17;;;;;;;70.25;20.10;;;4.00;99.90;;;;;;21100535;28;20103;-78
